createdAt,value
2023-05-14T00:08:04.903Z,97302.70
2023-05-14T00:18:08.421Z,97302.80
2023-05-14T00:28:11.550Z,97305.73
2023-05-14T00:38:19.500Z,97301.40
2023-05-14T00:48:23.605Z,97300.77
2023-05-14T00:58:27.174Z,97295.84
2023-05-14T01:08:42.435Z,97303.54
2023-05-14T01:19:42.250Z,97299.59
2023-05-14T01:30:23.442Z,97298.09
2023-05-14T01:40:27.278Z,97299.45
2023-05-14T01:50:30.693Z,97303.13
2023-05-14T02:00:33.823Z,97299.98
2023-05-14T02:10:37.002Z,97293.70
2023-05-14T02:20:40.081Z,97280.70
2023-05-14T02:30:43.080Z,97269.41
2023-05-14T02:40:46.356Z,97250.33
2023-05-14T02:50:52.499Z,97234.87
2023-05-14T03:00:55.835Z,97240.41
2023-05-14T03:10:59.725Z,97261.88
2023-05-14T03:21:04.081Z,97271.23
2023-05-14T03:31:07.256Z,97266.06
2023-05-14T03:41:10.552Z,97250.62
2023-05-14T03:51:13.621Z,97251.91
2023-05-14T04:01:16.831Z,97247.83
2023-05-14T04:11:19.930Z,97247.55
2023-05-14T04:21:23.000Z,97238.71
2023-05-14T04:31:26.174Z,97237.36
2023-05-14T04:41:29.249Z,97231.98
2023-05-14T04:51:32.712Z,97234.55
2023-05-14T05:01:35.846Z,97234.39
2023-05-14T05:11:39.377Z,97228.39
2023-05-14T05:21:42.590Z,97224.48
2023-05-14T05:31:45.654Z,97214.65
2023-05-14T05:41:48.925Z,97212.36
2023-05-14T05:51:52.302Z,97205.66
2023-05-14T06:01:55.687Z,97183.25
2023-05-14T06:11:59.046Z,97177.78
2023-05-14T06:22:02.950Z,97166.73
2023-05-14T06:32:06.541Z,97159.09
2023-05-14T06:42:09.804Z,97146.61
2023-05-14T06:52:12.876Z,97136.55
2023-05-14T07:02:16.014Z,97137.36
2023-05-14T07:12:25.065Z,97135.63
2023-05-14T07:22:30.316Z,97128.91
2023-05-14T07:32:36.161Z,97120.47
2023-05-14T07:42:43.877Z,97110.14
2023-05-14T07:52:47.961Z,97106.11
2023-05-14T08:02:52.068Z,97095.99
2023-05-14T08:12:55.609Z,97081.31
2023-05-14T08:22:58.825Z,97068.81
2023-05-14T08:33:01.876Z,97059.27
2023-05-14T08:43:06.549Z,97057.58
2023-05-14T08:53:09.702Z,97053.27
2023-05-14T09:03:13.456Z,97037.36
2023-05-14T09:13:16.643Z,97028.00
2023-05-14T09:23:19.759Z,97017.84
2023-05-14T09:33:29.652Z,97012.56
2023-05-14T09:43:32.704Z,97009.08
2023-05-14T09:53:35.943Z,97008.95
2023-05-14T10:03:39.486Z,97000.13
2023-05-14T10:13:47.704Z,96982.23
2023-05-14T10:23:51.354Z,96969.96
2023-05-14T10:33:55.212Z,96951.93
2023-05-14T10:43:59.364Z,96937.52
2023-05-14T10:54:02.510Z,96928.41
2023-05-14T11:04:06.098Z,96922.70
2023-05-14T11:14:10.596Z,96915.77
2023-05-14T11:24:13.795Z,96907.09
2023-05-14T11:34:17.124Z,96900.94
2023-05-14T11:44:20.642Z,96893.34
2023-05-14T11:54:26.163Z,96880.75
2023-05-14T12:04:31.230Z,96861.37
2023-05-14T12:14:38.440Z,96844.04
2023-05-14T12:24:43.045Z,96829.31
2023-05-14T12:34:46.415Z,96815.65
2023-05-14T12:44:49.891Z,96801.41
2023-05-14T12:54:53.204Z,96801.26
2023-05-14T13:04:56.593Z,96794.52
2023-05-14T13:14:59.784Z,96784.01
2023-05-14T13:25:03.689Z,96773.13
2023-05-14T13:35:07.954Z,96776.24
2023-05-14T13:45:11.889Z,96765.70
2023-05-14T13:55:15.185Z,96744.56
2023-05-14T14:05:18.397Z,96726.30
2023-05-14T14:15:21.989Z,96718.45
2023-05-14T14:25:25.505Z,96712.61
2023-05-14T14:35:28.884Z,96707.48
2023-05-14T14:45:32.203Z,96695.06
2023-05-14T14:55:35.337Z,96685.92
2023-05-14T15:05:38.445Z,96673.98
2023-05-14T15:15:41.541Z,96666.35
2023-05-14T15:25:44.942Z,96655.64
2023-05-14T15:35:48.120Z,96656.48
2023-05-14T15:45:51.455Z,96654.55
2023-05-14T15:55:55.408Z,96642.09
2023-05-14T16:06:23.633Z,96629.60
2023-05-14T16:16:27.209Z,96617.14
2023-05-14T16:26:30.814Z,96606.62
2023-05-14T16:36:34.461Z,96600.17
2023-05-14T16:46:37.877Z,96595.94
2023-05-14T16:56:48.181Z,96590.81
2023-05-14T17:06:53.218Z,96583.46
2023-05-14T17:16:57.143Z,96583.54
2023-05-14T17:27:00.359Z,96580.64
2023-05-14T17:37:03.561Z,96572.35
2023-05-14T17:47:08.401Z,96558.79
2023-05-14T17:57:11.595Z,96556.92
2023-05-14T18:07:14.798Z,96544.92
2023-05-14T18:17:18.089Z,96546.73
2023-05-14T18:27:21.295Z,96543.42
2023-05-14T18:37:26.988Z,96551.14
2023-05-14T18:47:35.130Z,96575.16
2023-05-14T18:57:38.458Z,96582.05
2023-05-14T19:07:41.950Z,96581.52
2023-05-14T19:17:45.386Z,96592.04
2023-05-14T19:28:13.949Z,96588.56
2023-05-14T19:38:21.073Z,96572.52
2023-05-14T19:48:49.627Z,96551.41
2023-05-14T20:11:33.303Z,96505.33
2023-05-14T20:21:36.511Z,96485.25
2023-05-14T20:32:05.035Z,96470.25
2023-05-14T20:42:08.151Z,96446.30
2023-05-14T20:52:11.343Z,96434.02
2023-05-14T21:02:14.948Z,96404.05
2023-05-14T21:12:19.350Z,96372.44
2023-05-14T21:22:22.563Z,96351.97
2023-05-14T21:32:25.828Z,96358.82
2023-05-14T21:42:53.735Z,96341.34
2023-05-14T21:52:57.046Z,96338.02
2023-05-14T22:03:00.292Z,96334.17
2023-05-14T22:13:03.346Z,96309.45
2023-05-14T22:23:06.369Z,96273.70
2023-05-14T22:33:09.650Z,96275.98
2023-05-14T22:43:12.897Z,96295.42
2023-05-14T22:53:15.965Z,96268.34
2023-05-14T23:03:19.170Z,96266.61
2023-05-14T23:13:48.087Z,96252.59
2023-05-14T23:23:51.228Z,96239.34
2023-05-14T23:33:54.429Z,96232.19
2023-05-14T23:43:57.447Z,96216.84
2023-05-14T23:54:00.518Z,96200.95
